sensor_id;sensor_type;location;lat;lon;timestamp;P1;durP1;ratioP1;P2;durP2;ratioP2
29422;SDS011;16399;51.686;8.684;2023-05-07T00:00:58;12.13;;;7.22;;
29422;SDS011;16399;51.686;8.684;2023-05-07T00:04:00;12.13;;;7.10;;
29422;SDS011;16399;51.686;8.684;2023-05-07T00:07:04;12.13;;;7.15;;
29422;SDS011;16399;51.686;8.684;2023-05-07T00:10:06;12.75;;;7.50;;
29422;SDS011;16399;51.686;8.684;2023-05-07T00:13:09;11.08;;;7.45;;
29422;SDS011;16399;51.686;8.684;2023-05-07T00:16:11;13.85;;;7.62;;
29422;SDS011;16399;51.686;8.684;2023-05-07T00:19:14;11.05;;;7.62;;
29422;SDS011;16399;51.686;8.684;2023-05-07T00:22:16;13.72;;;8.28;;
29422;SDS011;16399;51.686;8.684;2023-05-07T00:25:18;14.20;;;7.90;;
29422;SDS011;16399;51.686;8.684;2023-05-07T00:28:20;13.28;;;8.13;;
29422;SDS011;16399;51.686;8.684;2023-05-07T00:31:23;12.07;;;7.67;;
29422;SDS011;16399;51.686;8.684;2023-05-07T00:34:25;13.43;;;8.13;;
29422;SDS011;16399;51.686;8.684;2023-05-07T00:37:27;14.50;;;9.18;;
29422;SDS011;16399;51.686;8.684;2023-05-07T00:40:30;14.18;;;9.28;;
29422;SDS011;16399;51.686;8.684;2023-05-07T00:43:33;16.42;;;9.58;;
29422;SDS011;16399;51.686;8.684;2023-05-07T00:46:35;15.23;;;9.28;;
29422;SDS011;16399;51.686;8.684;2023-05-07T00:49:38;15.90;;;9.13;;
29422;SDS011;16399;51.686;8.684;2023-05-07T00:52:42;16.55;;;10.58;;
29422;SDS011;16399;51.686;8.684;2023-05-07T00:55:45;15.55;;;9.70;;
29422;SDS011;16399;51.686;8.684;2023-05-07T00:58:47;14.58;;;10.43;;
29422;SDS011;16399;51.686;8.684;2023-05-07T01:01:50;16.02;;;11.30;;
29422;SDS011;16399;51.686;8.684;2023-05-07T01:04:53;19.80;;;11.33;;
29422;SDS011;16399;51.686;8.684;2023-05-07T01:07:57;20.20;;;11.30;;
29422;SDS011;16399;51.686;8.684;2023-05-07T01:11:00;17.40;;;11.15;;
29422;SDS011;16399;51.686;8.684;2023-05-07T01:14:03;19.45;;;12.82;;
29422;SDS011;16399;51.686;8.684;2023-05-07T01:17:05;16.27;;;10.93;;
29422;SDS011;16399;51.686;8.684;2023-05-07T01:20:08;19.55;;;13.38;;
29422;SDS011;16399;51.686;8.684;2023-05-07T01:23:11;18.20;;;13.00;;
29422;SDS011;16399;51.686;8.684;2023-05-07T01:26:13;19.45;;;13.25;;
29422;SDS011;16399;51.686;8.684;2023-05-07T01:29:16;20.08;;;13.65;;
29422;SDS011;16399;51.686;8.684;2023-05-07T01:32:20;19.62;;;14.25;;
29422;SDS011;16399;51.686;8.684;2023-05-07T01:35:26;18.00;;;12.95;;
29422;SDS011;16399;51.686;8.684;2023-05-07T01:38:32;22.27;;;13.65;;
29422;SDS011;16399;51.686;8.684;2023-05-07T01:41:36;18.17;;;12.75;;
29422;SDS011;16399;51.686;8.684;2023-05-07T01:44:39;23.27;;;15.30;;
29422;SDS011;16399;51.686;8.684;2023-05-07T01:47:41;23.10;;;13.98;;
29422;SDS011;16399;51.686;8.684;2023-05-07T01:50:45;21.57;;;14.13;;
29422;SDS011;16399;51.686;8.684;2023-05-07T01:53:49;24.50;;;14.33;;
29422;SDS011;16399;51.686;8.684;2023-05-07T01:56:54;25.02;;;13.95;;
29422;SDS011;16399;51.686;8.684;2023-05-07T01:59:57;21.82;;;14.65;;
29422;SDS011;16399;51.686;8.684;2023-05-07T02:03:00;19.95;;;15.08;;
29422;SDS011;16399;51.686;8.684;2023-05-07T02:06:02;26.62;;;14.98;;
29422;SDS011;16399;51.686;8.684;2023-05-07T02:09:04;21.82;;;14.25;;
29422;SDS011;16399;51.686;8.684;2023-05-07T02:12:08;23.73;;;14.70;;
29422;SDS011;16399;51.686;8.684;2023-05-07T02:15:11;23.77;;;15.60;;
29422;SDS011;16399;51.686;8.684;2023-05-07T02:18:13;22.42;;;15.53;;
29422;SDS011;16399;51.686;8.684;2023-05-07T02:21:16;21.35;;;15.28;;
29422;SDS011;16399;51.686;8.684;2023-05-07T02:24:18;22.82;;;15.03;;
29422;SDS011;16399;51.686;8.684;2023-05-07T02:27:20;21.93;;;15.32;;
29422;SDS011;16399;51.686;8.684;2023-05-07T02:30:23;20.97;;;14.73;;
29422;SDS011;16399;51.686;8.684;2023-05-07T02:33:25;21.97;;;14.28;;
29422;SDS011;16399;51.686;8.684;2023-05-07T02:36:27;20.82;;;14.13;;
29422;SDS011;16399;51.686;8.684;2023-05-07T02:39:30;20.72;;;14.87;;
29422;SDS011;16399;51.686;8.684;2023-05-07T02:42:32;22.05;;;14.55;;
29422;SDS011;16399;51.686;8.684;2023-05-07T02:45:34;22.30;;;14.65;;
29422;SDS011;16399;51.686;8.684;2023-05-07T02:48:38;23.47;;;14.95;;
29422;SDS011;16399;51.686;8.684;2023-05-07T02:51:40;21.33;;;14.00;;
29422;SDS011;16399;51.686;8.684;2023-05-07T02:54:42;24.15;;;16.10;;
29422;SDS011;16399;51.686;8.684;2023-05-07T02:57:45;21.62;;;14.80;;
29422;SDS011;16399;51.686;8.684;2023-05-07T03:00:47;22.40;;;15.08;;
29422;SDS011;16399;51.686;8.684;2023-05-07T03:03:50;21.70;;;14.03;;
29422;SDS011;16399;51.686;8.684;2023-05-07T03:06:52;23.47;;;15.50;;
29422;SDS011;16399;51.686;8.684;2023-05-07T03:09:55;23.38;;;15.10;;
29422;SDS011;16399;51.686;8.684;2023-05-07T03:12:57;27.00;;;15.95;;
29422;SDS011;16399;51.686;8.684;2023-05-07T03:15:59;25.37;;;16.02;;
29422;SDS011;16399;51.686;8.684;2023-05-07T03:19:02;29.60;;;15.83;;
29422;SDS011;16399;51.686;8.684;2023-05-07T03:22:04;22.65;;;15.55;;
29422;SDS011;16399;51.686;8.684;2023-05-07T03:25:06;24.72;;;16.35;;
29422;SDS011;16399;51.686;8.684;2023-05-07T03:28:09;25.97;;;16.52;;
29422;SDS011;16399;51.686;8.684;2023-05-07T03:31:12;24.65;;;16.27;;
29422;SDS011;16399;51.686;8.684;2023-05-07T03:34:14;26.82;;;17.23;;
29422;SDS011;16399;51.686;8.684;2023-05-07T03:37:17;24.07;;;15.40;;
29422;SDS011;16399;51.686;8.684;2023-05-07T03:40:20;25.55;;;16.67;;
29422;SDS011;16399;51.686;8.684;2023-05-07T03:43:22;25.35;;;17.00;;
29422;SDS011;16399;51.686;8.684;2023-05-07T03:46:24;28.15;;;16.42;;
29422;SDS011;16399;51.686;8.684;2023-05-07T03:49:28;27.52;;;16.45;;
29422;SDS011;16399;51.686;8.684;2023-05-07T03:52:30;26.23;;;17.67;;
29422;SDS011;16399;51.686;8.684;2023-05-07T03:55:33;29.35;;;17.12;;
29422;SDS011;16399;51.686;8.684;2023-05-07T03:58:36;24.80;;;16.17;;
29422;SDS011;16399;51.686;8.684;2023-05-07T04:01:38;30.02;;;17.90;;
29422;SDS011;16399;51.686;8.684;2023-05-07T04:04:40;29.63;;;17.62;;
29422;SDS011;16399;51.686;8.684;2023-05-07T04:07:43;27.25;;;17.55;;
29422;SDS011;16399;51.686;8.684;2023-05-07T04:10:45;27.67;;;17.65;;
29422;SDS011;16399;51.686;8.684;2023-05-07T04:13:47;29.05;;;17.92;;
29422;SDS011;16399;51.686;8.684;2023-05-07T04:16:50;29.37;;;18.50;;
29422;SDS011;16399;51.686;8.684;2023-05-07T04:19:52;30.32;;;17.57;;
29422;SDS011;16399;51.686;8.684;2023-05-07T04:22:54;29.48;;;18.45;;
29422;SDS011;16399;51.686;8.684;2023-05-07T04:25:56;29.87;;;18.12;;
29422;SDS011;16399;51.686;8.684;2023-05-07T04:28:59;30.75;;;17.73;;
29422;SDS011;16399;51.686;8.684;2023-05-07T04:32:01;34.00;;;18.80;;
29422;SDS011;16399;51.686;8.684;2023-05-07T04:35:04;29.35;;;17.55;;
29422;SDS011;16399;51.686;8.684;2023-05-07T04:38:07;30.88;;;17.92;;
29422;SDS011;16399;51.686;8.684;2023-05-07T04:41:12;30.32;;;18.17;;
29422;SDS011;16399;51.686;8.684;2023-05-07T04:44:14;31.42;;;19.37;;
29422;SDS011;16399;51.686;8.684;2023-05-07T04:47:17;30.80;;;18.90;;
29422;SDS011;16399;51.686;8.684;2023-05-07T04:50:19;29.42;;;18.05;;
29422;SDS011;16399;51.686;8.684;2023-05-07T04:53:23;33.63;;;18.00;;
29422;SDS011;16399;51.686;8.684;2023-05-07T04:56:27;30.15;;;17.27;;
29422;SDS011;16399;51.686;8.684;2023-05-07T04:59:32;29.80;;;18.30;;
29422;SDS011;16399;51.686;8.684;2023-05-07T05:02:34;29.85;;;18.52;;
29422;SDS011;16399;51.686;8.684;2023-05-07T05:05:36;28.57;;;17.67;;
29422;SDS011;16399;51.686;8.684;2023-05-07T05:08:39;28.67;;;17.90;;
29422;SDS011;16399;51.686;8.684;2023-05-07T05:11:41;31.12;;;18.92;;
29422;SDS011;16399;51.686;8.684;2023-05-07T05:14:43;30.90;;;18.80;;
29422;SDS011;16399;51.686;8.684;2023-05-07T05:17:46;32.93;;;19.32;;
29422;SDS011;16399;51.686;8.684;2023-05-07T05:20:48;30.35;;;18.17;;
29422;SDS011;16399;51.686;8.684;2023-05-07T05:23:50;28.23;;;19.02;;
29422;SDS011;16399;51.686;8.684;2023-05-07T05:26:53;31.05;;;18.80;;
29422;SDS011;16399;51.686;8.684;2023-05-07T05:29:55;28.77;;;18.65;;
29422;SDS011;16399;51.686;8.684;2023-05-07T05:32:57;29.57;;;18.10;;
29422;SDS011;16399;51.686;8.684;2023-05-07T05:36:00;31.07;;;18.40;;
29422;SDS011;16399;51.686;8.684;2023-05-07T05:39:02;31.17;;;17.90;;
29422;SDS011;16399;51.686;8.684;2023-05-07T05:42:05;28.60;;;18.17;;
29422;SDS011;16399;51.686;8.684;2023-05-07T05:45:07;29.18;;;19.00;;
29422;SDS011;16399;51.686;8.684;2023-05-07T05:48:10;32.50;;;17.62;;
29422;SDS011;16399;51.686;8.684;2023-05-07T05:51:12;29.35;;;18.00;;
29422;SDS011;16399;51.686;8.684;2023-05-07T05:54:15;25.80;;;17.65;;
29422;SDS011;16399;51.686;8.684;2023-05-07T05:57:17;30.82;;;18.80;;
29422;SDS011;16399;51.686;8.684;2023-05-07T06:00:19;28.60;;;17.57;;
29422;SDS011;16399;51.686;8.684;2023-05-07T06:03:25;26.23;;;16.60;;
29422;SDS011;16399;51.686;8.684;2023-05-07T06:06:27;23.77;;;15.30;;
29422;SDS011;16399;51.686;8.684;2023-05-07T06:09:29;29.20;;;17.12;;
29422;SDS011;16399;51.686;8.684;2023-05-07T06:12:32;25.15;;;15.83;;
29422;SDS011;16399;51.686;8.684;2023-05-07T06:15:35;27.07;;;15.93;;
29422;SDS011;16399;51.686;8.684;2023-05-07T06:18:37;28.50;;;16.45;;
29422;SDS011;16399;51.686;8.684;2023-05-07T06:21:39;26.20;;;16.10;;
29422;SDS011;16399;51.686;8.684;2023-05-07T06:24:42;23.73;;;16.20;;
29422;SDS011;16399;51.686;8.684;2023-05-07T06:27:44;26.82;;;15.72;;
29422;SDS011;16399;51.686;8.684;2023-05-07T06:30:46;27.65;;;15.70;;
29422;SDS011;16399;51.686;8.684;2023-05-07T06:33:50;24.27;;;15.50;;
29422;SDS011;16399;51.686;8.684;2023-05-07T06:36:52;25.12;;;16.12;;
29422;SDS011;16399;51.686;8.684;2023-05-07T06:39:55;26.17;;;16.37;;
29422;SDS011;16399;51.686;8.684;2023-05-07T06:42:57;24.72;;;15.28;;
29422;SDS011;16399;51.686;8.684;2023-05-07T06:45:59;23.32;;;14.95;;
29422;SDS011;16399;51.686;8.684;2023-05-07T06:49:01;27.58;;;15.72;;
29422;SDS011;16399;51.686;8.684;2023-05-07T06:52:04;29.70;;;15.95;;
29422;SDS011;16399;51.686;8.684;2023-05-07T06:55:06;20.45;;;13.85;;
29422;SDS011;16399;51.686;8.684;2023-05-07T06:58:09;25.15;;;15.10;;
29422;SDS011;16399;51.686;8.684;2023-05-07T07:01:11;23.62;;;15.32;;
29422;SDS011;16399;51.686;8.684;2023-05-07T07:04:13;22.22;;;14.47;;
29422;SDS011;16399;51.686;8.684;2023-05-07T07:07:16;23.85;;;14.43;;
29422;SDS011;16399;51.686;8.684;2023-05-07T07:10:19;20.80;;;13.45;;
29422;SDS011;16399;51.686;8.684;2023-05-07T07:13:21;18.95;;;12.47;;
29422;SDS011;16399;51.686;8.684;2023-05-07T07:16:23;19.37;;;13.48;;
29422;SDS011;16399;51.686;8.684;2023-05-07T07:19:26;22.35;;;13.35;;
29422;SDS011;16399;51.686;8.684;2023-05-07T07:22:28;18.73;;;12.47;;
29422;SDS011;16399;51.686;8.684;2023-05-07T07:25:31;19.73;;;13.18;;
29422;SDS011;16399;51.686;8.684;2023-05-07T07:28:34;21.85;;;13.15;;
29422;SDS011;16399;51.686;8.684;2023-05-07T07:31:36;19.55;;;12.10;;
29422;SDS011;16399;51.686;8.684;2023-05-07T07:34:38;18.17;;;11.57;;
29422;SDS011;16399;51.686;8.684;2023-05-07T07:37:41;18.77;;;11.53;;
29422;SDS011;16399;51.686;8.684;2023-05-07T07:40:43;17.67;;;12.18;;
29422;SDS011;16399;51.686;8.684;2023-05-07T07:43:46;20.37;;;12.37;;
29422;SDS011;16399;51.686;8.684;2023-05-07T07:46:48;18.55;;;11.50;;
29422;SDS011;16399;51.686;8.684;2023-05-07T07:49:51;16.82;;;11.03;;
29422;SDS011;16399;51.686;8.684;2023-05-07T07:52:53;16.85;;;11.18;;
29422;SDS011;16399;51.686;8.684;2023-05-07T07:55:55;16.95;;;11.45;;
29422;SDS011;16399;51.686;8.684;2023-05-07T07:58:58;17.37;;;10.58;;
29422;SDS011;16399;51.686;8.684;2023-05-07T08:02:00;14.83;;;10.35;;
29422;SDS011;16399;51.686;8.684;2023-05-07T08:05:02;14.87;;;10.08;;
29422;SDS011;16399;51.686;8.684;2023-05-07T08:08:05;16.15;;;10.38;;
29422;SDS011;16399;51.686;8.684;2023-05-07T08:11:07;18.10;;;10.90;;
29422;SDS011;16399;51.686;8.684;2023-05-07T08:14:10;15.23;;;10.10;;
29422;SDS011;16399;51.686;8.684;2023-05-07T08:17:12;14.73;;;9.85;;
29422;SDS011;16399;51.686;8.684;2023-05-07T08:20:16;15.70;;;9.90;;
29422;SDS011;16399;51.686;8.684;2023-05-07T08:23:18;16.48;;;11.05;;
29422;SDS011;16399;51.686;8.684;2023-05-07T08:26:21;17.98;;;10.80;;
29422;SDS011;16399;51.686;8.684;2023-05-07T08:29:23;15.13;;;10.18;;
29422;SDS011;16399;51.686;8.684;2023-05-07T08:32:25;15.68;;;9.58;;
29422;SDS011;16399;51.686;8.684;2023-05-07T08:35:28;14.50;;;9.95;;
29422;SDS011;16399;51.686;8.684;2023-05-07T08:38:30;13.78;;;8.93;;
29422;SDS011;16399;51.686;8.684;2023-05-07T08:41:33;12.98;;;9.35;;
29422;SDS011;16399;51.686;8.684;2023-05-07T08:44:35;13.20;;;8.53;;
29422;SDS011;16399;51.686;8.684;2023-05-07T08:47:44;16.45;;;9.53;;
29422;SDS011;16399;51.686;8.684;2023-05-07T08:50:48;13.45;;;9.10;;
29422;SDS011;16399;51.686;8.684;2023-05-07T08:53:50;13.43;;;8.68;;
29422;SDS011;16399;51.686;8.684;2023-05-07T08:56:52;13.40;;;8.75;;
29422;SDS011;16399;51.686;8.684;2023-05-07T08:59:55;12.58;;;8.88;;
29422;SDS011;16399;51.686;8.684;2023-05-07T09:02:57;13.18;;;8.05;;
29422;SDS011;16399;51.686;8.684;2023-05-07T09:05:59;11.78;;;8.10;;
29422;SDS011;16399;51.686;8.684;2023-05-07T09:09:02;11.48;;;7.92;;
29422;SDS011;16399;51.686;8.684;2023-05-07T09:12:05;11.57;;;7.93;;
29422;SDS011;16399;51.686;8.684;2023-05-07T09:15:08;12.82;;;8.53;;
29422;SDS011;16399;51.686;8.684;2023-05-07T09:18:12;11.90;;;8.53;;
29422;SDS011;16399;51.686;8.684;2023-05-07T09:21:17;13.88;;;8.68;;
29422;SDS011;16399;51.686;8.684;2023-05-07T09:24:21;11.97;;;8.15;;
29422;SDS011;16399;51.686;8.684;2023-05-07T09:27:24;11.43;;;7.87;;
29422;SDS011;16399;51.686;8.684;2023-05-07T09:30:28;11.55;;;7.70;;
29422;SDS011;16399;51.686;8.684;2023-05-07T09:33:31;12.82;;;8.10;;
29422;SDS011;16399;51.686;8.684;2023-05-07T09:36:33;12.43;;;8.25;;
29422;SDS011;16399;51.686;8.684;2023-05-07T09:42:44;11.03;;;8.00;;
29422;SDS011;16399;51.686;8.684;2023-05-07T09:45:47;11.03;;;7.90;;
29422;SDS011;16399;51.686;8.684;2023-05-07T09:48:52;10.88;;;7.30;;
29422;SDS011;16399;51.686;8.684;2023-05-07T09:51:56;13.83;;;6.75;;
29422;SDS011;16399;51.686;8.684;2023-05-07T09:55:01;11.20;;;7.25;;
29422;SDS011;16399;51.686;8.684;2023-05-07T09:58:06;8.78;;;6.80;;
29422;SDS011;16399;51.686;8.684;2023-05-07T10:01:10;13.80;;;7.87;;
29422;SDS011;16399;51.686;8.684;2023-05-07T10:04:13;12.05;;;7.72;;
29422;SDS011;16399;51.686;8.684;2023-05-07T10:07:16;10.35;;;7.35;;
29422;SDS011;16399;51.686;8.684;2023-05-07T10:10:18;10.48;;;7.55;;
29422;SDS011;16399;51.686;8.684;2023-05-07T10:13:21;11.12;;;7.75;;
29422;SDS011;16399;51.686;8.684;2023-05-07T10:16:24;10.20;;;7.75;;
29422;SDS011;16399;51.686;8.684;2023-05-07T10:22:38;9.25;;;6.72;;
29422;SDS011;16399;51.686;8.684;2023-05-07T10:25:43;10.32;;;7.47;;
29422;SDS011;16399;51.686;8.684;2023-05-07T10:28:46;10.50;;;6.72;;
29422;SDS011;16399;51.686;8.684;2023-05-07T10:31:53;8.75;;;6.55;;
29422;SDS011;16399;51.686;8.684;2023-05-07T10:35:02;9.70;;;6.58;;
29422;SDS011;16399;51.686;8.684;2023-05-07T10:38:05;10.90;;;7.03;;
29422;SDS011;16399;51.686;8.684;2023-05-07T10:41:08;10.23;;;6.08;;
29422;SDS011;16399;51.686;8.684;2023-05-07T10:44:19;8.93;;;6.37;;
29422;SDS011;16399;51.686;8.684;2023-05-07T10:47:31;9.20;;;6.25;;
29422;SDS011;16399;51.686;8.684;2023-05-07T10:50:34;8.25;;;6.20;;
29422;SDS011;16399;51.686;8.684;2023-05-07T10:53:36;10.05;;;6.00;;
29422;SDS011;16399;51.686;8.684;2023-05-07T10:56:39;8.15;;;5.33;;
29422;SDS011;16399;51.686;8.684;2023-05-07T10:59:44;8.05;;;5.87;;
29422;SDS011;16399;51.686;8.684;2023-05-07T11:06:09;8.83;;;5.67;;
29422;SDS011;16399;51.686;8.684;2023-05-07T11:09:13;8.30;;;6.10;;
29422;SDS011;16399;51.686;8.684;2023-05-07T11:12:16;7.42;;;5.62;;
29422;SDS011;16399;51.686;8.684;2023-05-07T11:15:54;8.75;;;6.12;;
29422;SDS011;16399;51.686;8.684;2023-05-07T11:18:47;8.85;;;5.60;;
29422;SDS011;16399;51.686;8.684;2023-05-07T11:21:47;8.28;;;5.37;;
29422;SDS011;16399;51.686;8.684;2023-05-07T11:24:49;6.92;;;4.70;;
29422;SDS011;16399;51.686;8.684;2023-05-07T11:27:52;7.00;;;5.17;;
29422;SDS011;16399;51.686;8.684;2023-05-07T11:30:55;8.30;;;4.85;;
29422;SDS011;16399;51.686;8.684;2023-05-07T11:33:58;6.80;;;4.60;;
29422;SDS011;16399;51.686;8.684;2023-05-07T11:37:01;7.17;;;4.62;;
29422;SDS011;16399;51.686;8.684;2023-05-07T11:40:08;7.95;;;5.28;;
29422;SDS011;16399;51.686;8.684;2023-05-07T11:43:14;9.80;;;4.70;;
29422;SDS011;16399;51.686;8.684;2023-05-07T11:46:16;7.15;;;5.03;;
29422;SDS011;16399;51.686;8.684;2023-05-07T11:49:19;6.92;;;4.67;;
29422;SDS011;16399;51.686;8.684;2023-05-07T11:52:21;6.40;;;5.00;;
29422;SDS011;16399;51.686;8.684;2023-05-07T11:55:25;8.05;;;4.95;;
29422;SDS011;16399;51.686;8.684;2023-05-07T11:58:27;6.92;;;4.65;;
29422;SDS011;16399;51.686;8.684;2023-05-07T12:01:29;7.10;;;4.95;;
29422;SDS011;16399;51.686;8.684;2023-05-07T12:04:32;6.70;;;4.58;;
29422;SDS011;16399;51.686;8.684;2023-05-07T12:07:34;7.15;;;4.58;;
29422;SDS011;16399;51.686;8.684;2023-05-07T12:10:40;7.15;;;4.53;;
29422;SDS011;16399;51.686;8.684;2023-05-07T12:13:43;6.95;;;5.08;;
29422;SDS011;16399;51.686;8.684;2023-05-07T12:16:46;5.50;;;3.87;;
29422;SDS011;16399;51.686;8.684;2023-05-07T12:19:48;7.08;;;4.87;;
29422;SDS011;16399;51.686;8.684;2023-05-07T12:22:51;6.22;;;3.95;;
29422;SDS011;16399;51.686;8.684;2023-05-07T12:25:53;6.53;;;4.40;;
29422;SDS011;16399;51.686;8.684;2023-05-07T12:29:00;8.30;;;5.85;;
29422;SDS011;16399;51.686;8.684;2023-05-07T12:32:00;5.87;;;3.70;;
29422;SDS011;16399;51.686;8.684;2023-05-07T12:35:02;7.75;;;4.00;;
29422;SDS011;16399;51.686;8.684;2023-05-07T12:38:10;7.28;;;3.95;;
29422;SDS011;16399;51.686;8.684;2023-05-07T12:41:14;5.15;;;3.50;;
29422;SDS011;16399;51.686;8.684;2023-05-07T12:44:17;5.53;;;3.65;;
29422;SDS011;16399;51.686;8.684;2023-05-07T12:47:19;7.55;;;3.62;;
29422;SDS011;16399;51.686;8.684;2023-05-07T12:50:23;5.28;;;3.55;;
29422;SDS011;16399;51.686;8.684;2023-05-07T12:53:25;5.65;;;3.77;;
29422;SDS011;16399;51.686;8.684;2023-05-07T12:56:30;5.10;;;3.60;;
29422;SDS011;16399;51.686;8.684;2023-05-07T12:59:41;5.42;;;3.58;;
29422;SDS011;16399;51.686;8.684;2023-05-07T13:02:44;5.75;;;3.92;;
29422;SDS011;16399;51.686;8.684;2023-05-07T13:05:47;6.17;;;3.22;;
29422;SDS011;16399;51.686;8.684;2023-05-07T13:08:50;5.85;;;3.80;;
29422;SDS011;16399;51.686;8.684;2023-05-07T13:11:52;8.23;;;4.10;;
29422;SDS011;16399;51.686;8.684;2023-05-07T13:14:55;5.97;;;3.42;;
29422;SDS011;16399;51.686;8.684;2023-05-07T13:17:57;7.08;;;4.83;;
29422;SDS011;16399;51.686;8.684;2023-05-07T13:21:00;14.07;;;10.03;;
29422;SDS011;16399;51.686;8.684;2023-05-07T13:24:02;9.28;;;5.90;;
29422;SDS011;16399;51.686;8.684;2023-05-07T13:27:05;6.20;;;3.60;;
29422;SDS011;16399;51.686;8.684;2023-05-07T13:30:07;9.00;;;3.65;;
29422;SDS011;16399;51.686;8.684;2023-05-07T13:33:09;16.87;;;10.88;;
29422;SDS011;16399;51.686;8.684;2023-05-07T13:36:12;10.10;;;6.75;;
29422;SDS011;16399;51.686;8.684;2023-05-07T13:39:14;6.12;;;3.95;;
29422;SDS011;16399;51.686;8.684;2023-05-07T13:42:16;6.85;;;4.28;;
29422;SDS011;16399;51.686;8.684;2023-05-07T13:45:19;7.55;;;3.90;;
29422;SDS011;16399;51.686;8.684;2023-05-07T13:48:21;6.97;;;4.62;;
29422;SDS011;16399;51.686;8.684;2023-05-07T13:51:23;6.70;;;4.20;;
29422;SDS011;16399;51.686;8.684;2023-05-07T13:54:26;6.62;;;4.55;;
29422;SDS011;16399;51.686;8.684;2023-05-07T13:57:28;9.25;;;5.15;;
29422;SDS011;16399;51.686;8.684;2023-05-07T14:00:30;8.13;;;4.90;;
29422;SDS011;16399;51.686;8.684;2023-05-07T14:03:33;7.45;;;5.17;;
29422;SDS011;16399;51.686;8.684;2023-05-07T14:06:37;7.83;;;5.65;;
29422;SDS011;16399;51.686;8.684;2023-05-07T14:09:39;10.80;;;6.25;;
29422;SDS011;16399;51.686;8.684;2023-05-07T14:12:41;8.30;;;5.90;;
29422;SDS011;16399;51.686;8.684;2023-05-07T14:15:45;9.38;;;7.00;;
29422;SDS011;16399;51.686;8.684;2023-05-07T14:18:49;9.78;;;6.42;;
29422;SDS011;16399;51.686;8.684;2023-05-07T14:21:51;8.75;;;5.83;;
29422;SDS011;16399;51.686;8.684;2023-05-07T14:24:53;9.50;;;5.90;;
29422;SDS011;16399;51.686;8.684;2023-05-07T14:27:55;8.78;;;6.40;;
29422;SDS011;16399;51.686;8.684;2023-05-07T14:30:58;11.28;;;7.25;;
29422;SDS011;16399;51.686;8.684;2023-05-07T14:34:00;9.98;;;7.33;;
29422;SDS011;16399;51.686;8.684;2023-05-07T14:37:02;11.18;;;7.08;;
29422;SDS011;16399;51.686;8.684;2023-05-07T14:40:05;9.28;;;6.53;;
29422;SDS011;16399;51.686;8.684;2023-05-07T14:43:08;10.98;;;6.85;;
29422;SDS011;16399;51.686;8.684;2023-05-07T14:46:10;11.60;;;7.47;;
29422;SDS011;16399;51.686;8.684;2023-05-07T14:49:13;14.95;;;7.83;;
29422;SDS011;16399;51.686;8.684;2023-05-07T14:52:17;12.47;;;7.95;;
29422;SDS011;16399;51.686;8.684;2023-05-07T14:55:20;10.43;;;7.33;;
29422;SDS011;16399;51.686;8.684;2023-05-07T14:58:22;11.85;;;8.33;;
29422;SDS011;16399;51.686;8.684;2023-05-07T15:01:26;11.53;;;8.35;;
29422;SDS011;16399;51.686;8.684;2023-05-07T15:04:28;11.50;;;8.93;;
29422;SDS011;16399;51.686;8.684;2023-05-07T15:07:30;11.57;;;8.30;;
29422;SDS011;16399;51.686;8.684;2023-05-07T15:10:35;12.28;;;8.93;;
29422;SDS011;16399;51.686;8.684;2023-05-07T15:13:41;12.85;;;9.20;;
29422;SDS011;16399;51.686;8.684;2023-05-07T15:16:44;13.65;;;10.15;;
29422;SDS011;16399;51.686;8.684;2023-05-07T15:19:46;12.53;;;8.93;;
29422;SDS011;16399;51.686;8.684;2023-05-07T15:22:48;12.63;;;9.05;;
29422;SDS011;16399;51.686;8.684;2023-05-07T15:25:51;13.93;;;9.95;;
29422;SDS011;16399;51.686;8.684;2023-05-07T15:28:54;13.50;;;10.43;;
29422;SDS011;16399;51.686;8.684;2023-05-07T15:31:57;13.58;;;10.13;;
29422;SDS011;16399;51.686;8.684;2023-05-07T15:35:00;14.20;;;10.23;;
29422;SDS011;16399;51.686;8.684;2023-05-07T15:38:02;13.15;;;10.05;;
29422;SDS011;16399;51.686;8.684;2023-05-07T15:41:05;14.70;;;10.88;;
29422;SDS011;16399;51.686;8.684;2023-05-07T15:44:08;15.78;;;11.18;;
29422;SDS011;16399;51.686;8.684;2023-05-07T15:47:10;13.55;;;10.13;;
29422;SDS011;16399;51.686;8.684;2023-05-07T15:50:14;15.13;;;11.28;;
29422;SDS011;16399;51.686;8.684;2023-05-07T15:53:16;15.45;;;11.03;;
29422;SDS011;16399;51.686;8.684;2023-05-07T15:56:19;18.07;;;11.22;;
29422;SDS011;16399;51.686;8.684;2023-05-07T15:59:21;14.20;;;9.78;;
29422;SDS011;16399;51.686;8.684;2023-05-07T16:02:23;12.65;;;9.88;;
29422;SDS011;16399;51.686;8.684;2023-05-07T16:05:26;15.18;;;10.58;;
29422;SDS011;16399;51.686;8.684;2023-05-07T16:08:28;15.68;;;10.20;;
29422;SDS011;16399;51.686;8.684;2023-05-07T16:11:30;14.43;;;10.30;;
29422;SDS011;16399;51.686;8.684;2023-05-07T16:14:33;13.75;;;9.75;;
29422;SDS011;16399;51.686;8.684;2023-05-07T16:17:35;12.18;;;9.35;;
29422;SDS011;16399;51.686;8.684;2023-05-07T16:20:38;14.60;;;10.93;;
29422;SDS011;16399;51.686;8.684;2023-05-07T16:23:41;14.43;;;10.48;;
29422;SDS011;16399;51.686;8.684;2023-05-07T16:26:43;14.58;;;10.45;;
29422;SDS011;16399;51.686;8.684;2023-05-07T16:29:45;16.10;;;10.23;;
29422;SDS011;16399;51.686;8.684;2023-05-07T16:32:48;13.78;;;9.93;;
29422;SDS011;16399;51.686;8.684;2023-05-07T16:35:51;14.45;;;10.68;;
29422;SDS011;16399;51.686;8.684;2023-05-07T16:38:54;12.93;;;10.30;;
29422;SDS011;16399;51.686;8.684;2023-05-07T16:41:57;13.30;;;9.95;;
29422;SDS011;16399;51.686;8.684;2023-05-07T16:44:59;14.00;;;9.90;;
29422;SDS011;16399;51.686;8.684;2023-05-07T16:48:01;14.83;;;10.03;;
29422;SDS011;16399;51.686;8.684;2023-05-07T16:51:04;14.23;;;10.08;;
29422;SDS011;16399;51.686;8.684;2023-05-07T16:54:08;16.55;;;10.53;;
29422;SDS011;16399;51.686;8.684;2023-05-07T16:57:10;13.22;;;10.32;;
29422;SDS011;16399;51.686;8.684;2023-05-07T17:00:13;13.88;;;10.35;;
29422;SDS011;16399;51.686;8.684;2023-05-07T17:03:16;13.68;;;10.82;;
29422;SDS011;16399;51.686;8.684;2023-05-07T17:06:19;14.35;;;10.55;;
29422;SDS011;16399;51.686;8.684;2023-05-07T17:09:21;15.08;;;10.65;;
29422;SDS011;16399;51.686;8.684;2023-05-07T17:12:26;14.05;;;10.80;;
29422;SDS011;16399;51.686;8.684;2023-05-07T17:15:30;13.50;;;10.10;;
29422;SDS011;16399;51.686;8.684;2023-05-07T17:18:33;15.75;;;10.43;;
29422;SDS011;16399;51.686;8.684;2023-05-07T17:21:35;14.73;;;10.30;;
29422;SDS011;16399;51.686;8.684;2023-05-07T17:24:38;13.03;;;9.83;;
29422;SDS011;16399;51.686;8.684;2023-05-07T17:27:40;14.65;;;10.30;;
29422;SDS011;16399;51.686;8.684;2023-05-07T17:30:42;14.28;;;9.58;;
29422;SDS011;16399;51.686;8.684;2023-05-07T17:33:46;13.83;;;9.55;;
29422;SDS011;16399;51.686;8.684;2023-05-07T17:40:10;14.63;;;10.10;;
29422;SDS011;16399;51.686;8.684;2023-05-07T17:43:13;14.40;;;9.98;;
29422;SDS011;16399;51.686;8.684;2023-05-07T17:46:16;12.78;;;9.58;;
29422;SDS011;16399;51.686;8.684;2023-05-07T17:49:18;13.35;;;9.58;;
29422;SDS011;16399;51.686;8.684;2023-05-07T17:52:21;14.05;;;9.43;;
29422;SDS011;16399;51.686;8.684;2023-05-07T17:55:23;12.93;;;9.60;;
29422;SDS011;16399;51.686;8.684;2023-05-07T17:58:26;13.65;;;9.78;;
29422;SDS011;16399;51.686;8.684;2023-05-07T18:01:28;13.72;;;9.88;;
29422;SDS011;16399;51.686;8.684;2023-05-07T18:04:32;15.70;;;10.13;;
29422;SDS011;16399;51.686;8.684;2023-05-07T18:07:34;14.25;;;9.65;;
29422;SDS011;16399;51.686;8.684;2023-05-07T18:10:37;12.68;;;10.23;;
29422;SDS011;16399;51.686;8.684;2023-05-07T18:13:40;14.35;;;9.58;;